createdAt,value
2018-01-27T00:00:33.566Z,1.60
2018-01-27T00:03:03.123Z,1.67
2018-01-27T00:05:32.835Z,1.80
2018-01-27T00:08:02.669Z,1.77
2018-01-27T00:10:32.199Z,1.30
2018-01-27T00:13:01.789Z,1.33
2018-01-27T00:15:34.527Z,1.50
2018-01-27T00:18:04.121Z,1.50
2018-01-27T00:20:37.078Z,1.47
2018-01-27T00:23:06.645Z,1.70
2018-01-27T00:25:42.163Z,1.60
2018-01-27T00:28:11.673Z,1.70
2018-01-27T00:30:41.201Z,1.30
2018-01-27T00:33:10.765Z,1.43
2018-01-27T00:35:43.573Z,1.50
2018-01-27T00:38:13.162Z,1.60
2018-01-27T00:40:42.708Z,2.00
2018-01-27T00:43:12.222Z,1.60
2018-01-27T00:45:41.742Z,1.30
2018-01-27T00:48:11.298Z,1.33
2018-01-27T00:50:40.881Z,1.63
2018-01-27T00:53:10.460Z,1.67
2018-01-27T00:55:39.989Z,1.60
2018-01-27T00:58:15.662Z,1.30
2018-01-27T01:00:45.339Z,1.40
2018-01-27T01:03:14.860Z,1.47
2018-01-27T01:05:44.445Z,1.30
2018-01-27T01:08:13.970Z,1.60
2018-01-27T01:10:43.487Z,1.30
2018-01-27T01:13:13.052Z,1.30
2018-01-27T01:15:42.702Z,1.40
2018-01-27T01:18:12.323Z,1.50
2018-01-27T01:20:42.037Z,1.20
2018-01-27T01:23:12.207Z,1.20
2018-01-27T01:25:41.768Z,1.30
2018-01-27T01:28:11.305Z,1.40
2018-01-27T01:30:40.830Z,1.00
2018-01-27T01:33:10.378Z,1.20
2018-01-27T01:35:39.922Z,1.50
2018-01-27T01:38:09.459Z,1.10
2018-01-27T01:40:38.990Z,1.30
2018-01-27T01:43:14.321Z,1.17
2018-01-27T01:45:43.854Z,1.10
2018-01-27T01:48:13.368Z,1.20
2018-01-27T01:50:42.890Z,0.97
2018-01-27T01:53:12.460Z,1.10
2018-01-27T01:55:41.986Z,1.10
2018-01-27T01:58:11.568Z,1.37
2018-01-27T02:00:54.150Z,1.00
2018-01-27T02:03:23.743Z,1.23
2018-01-27T02:05:59.510Z,1.00
2018-01-27T02:08:29.094Z,1.10
2018-01-27T02:10:58.681Z,1.00
2018-01-27T02:13:43.627Z,1.10
2018-01-27T02:16:13.134Z,1.20
2018-01-27T02:18:42.882Z,0.90
2018-01-27T02:21:18.790Z,0.90
2018-01-27T02:23:56.381Z,1.10
2018-01-27T02:26:26.117Z,1.13
2018-01-27T02:28:55.690Z,1.37
2018-01-27T02:31:25.621Z,1.10
2018-01-27T02:33:55.222Z,1.13
2018-01-27T02:36:24.838Z,1.10
2018-01-27T02:38:54.361Z,0.83
2018-01-27T02:41:23.896Z,0.90
2018-01-27T02:43:53.694Z,1.07
2018-01-27T02:46:23.287Z,1.40
2018-01-27T02:48:52.924Z,1.17
2018-01-27T02:51:22.515Z,1.37
2018-01-27T02:53:52.133Z,1.50
2018-01-27T02:56:21.710Z,1.20
2018-01-27T02:58:51.269Z,1.00
2018-01-27T03:01:21.188Z,1.20
2018-01-27T03:03:50.859Z,1.00
2018-01-27T03:06:20.802Z,1.13
2018-01-27T03:08:50.407Z,1.63
2018-01-27T03:11:19.928Z,1.10
2018-01-27T03:13:49.587Z,1.20
2018-01-27T03:16:19.208Z,0.90
2018-01-27T03:18:48.813Z,1.30
2018-01-27T03:21:24.424Z,1.40
2018-01-27T03:24:00.023Z,1.17
2018-01-27T03:26:36.659Z,1.00
2018-01-27T03:29:06.310Z,1.20
2018-01-27T03:31:38.228Z,1.40
2018-01-27T03:34:07.973Z,1.20
2018-01-27T03:36:37.538Z,1.07
2018-01-27T03:39:07.195Z,1.40
2018-01-27T03:41:43.776Z,1.50
2018-01-27T03:44:13.470Z,1.53
2018-01-27T03:46:43.043Z,1.27
2018-01-27T03:49:12.788Z,1.17
2018-01-27T03:51:42.329Z,1.20
2018-01-27T03:54:11.847Z,1.80
2018-01-27T03:56:55.336Z,1.20
2018-01-27T03:59:24.884Z,1.10
2018-01-27T04:01:54.424Z,1.30
2018-01-27T04:04:23.995Z,1.50
2018-01-27T04:06:53.577Z,1.80
2018-01-27T04:09:24.804Z,1.50
2018-01-27T04:11:54.436Z,1.23
2018-01-27T04:14:24.055Z,1.63
2018-01-27T04:16:53.725Z,1.63
2018-01-27T04:19:23.300Z,1.27
2018-01-27T04:21:52.930Z,2.00
2018-01-27T04:24:22.530Z,1.50
2018-01-27T04:26:53.633Z,1.20
2018-01-27T04:29:23.223Z,1.20
2018-01-27T04:31:52.798Z,1.70
2018-01-27T04:34:22.338Z,1.53
2018-01-27T04:36:52.038Z,1.80
2018-01-27T04:39:21.592Z,1.33
2018-01-27T04:41:51.110Z,1.50
2018-01-27T04:44:20.653Z,1.40
2018-01-27T04:46:50.175Z,1.50
2018-01-27T04:49:19.704Z,1.57
2018-01-27T04:51:49.250Z,1.30
2018-01-27T04:54:21.862Z,1.33
2018-01-27T04:56:58.388Z,1.37
2018-01-27T04:59:27.935Z,1.37
2018-01-27T05:01:57.508Z,2.30
2018-01-27T05:04:27.062Z,1.30
2018-01-27T05:06:56.569Z,1.43
2018-01-27T05:09:26.105Z,1.57
2018-01-27T05:11:55.676Z,1.20
2018-01-27T05:14:25.413Z,1.50
2018-01-27T05:16:54.981Z,1.70
2018-01-27T05:19:24.513Z,1.70
2018-01-27T05:21:54.026Z,1.60
2018-01-27T05:24:23.583Z,1.30
2018-01-27T05:26:53.122Z,1.17
2018-01-27T05:29:22.664Z,1.60
2018-01-27T05:31:52.130Z,1.40
2018-01-27T05:34:21.655Z,2.27
2018-01-27T05:36:59.707Z,1.60
2018-01-27T05:39:29.274Z,1.83
2018-01-27T05:41:58.775Z,1.63
2018-01-27T05:44:28.385Z,1.30
2018-01-27T05:46:57.925Z,1.60
2018-01-27T05:49:42.709Z,1.70
2018-01-27T05:52:12.214Z,1.50
2018-01-27T05:54:41.938Z,1.63
2018-01-27T05:57:11.509Z,1.63
2018-01-27T05:59:42.925Z,1.70
2018-01-27T06:02:12.494Z,1.70
2018-01-27T06:04:43.623Z,3.17
2018-01-27T06:07:13.398Z,1.70
2018-01-27T06:09:43.135Z,1.77
2018-01-27T06:12:12.683Z,1.70
2018-01-27T06:14:42.421Z,1.70
2018-01-27T06:17:12.811Z,1.83
2018-01-27T06:19:42.440Z,1.60
2018-01-27T06:22:19.218Z,2.17
2018-01-27T06:24:48.779Z,1.60
2018-01-27T06:27:18.393Z,1.57
2018-01-27T06:29:47.898Z,1.97
2018-01-27T06:32:18.894Z,1.80
2018-01-27T06:34:48.507Z,1.90
2018-01-27T06:37:18.262Z,2.20
2018-01-27T06:39:47.778Z,2.13
2018-01-27T06:42:17.298Z,2.40
2018-01-27T06:44:46.871Z,2.70
2018-01-27T06:47:16.431Z,3.80
2018-01-27T06:49:45.943Z,2.60
2018-01-27T06:52:15.781Z,2.10
2018-01-27T06:54:45.310Z,4.43
2018-01-27T06:57:14.901Z,3.47
2018-01-27T06:59:44.967Z,2.37
2018-01-27T07:02:14.816Z,2.30
2018-01-27T07:04:44.366Z,1.97
2018-01-27T07:07:15.816Z,2.20
2018-01-27T07:09:45.369Z,2.43
2018-01-27T07:12:14.881Z,2.43
2018-01-27T07:14:44.850Z,2.73
2018-01-27T07:17:14.594Z,2.30
2018-01-27T07:19:44.169Z,2.00
2018-01-27T07:22:13.739Z,1.97
2018-01-27T07:24:43.285Z,2.87
2018-01-27T07:27:12.838Z,2.00
2018-01-27T07:29:42.365Z,2.50
2018-01-27T07:32:12.203Z,4.33
2018-01-27T07:34:41.793Z,4.37
2018-01-27T07:37:11.390Z,3.37
2018-01-27T07:39:40.941Z,3.93
2018-01-27T07:42:10.509Z,3.33
2018-01-27T07:44:40.079Z,4.57
2018-01-27T07:47:09.891Z,3.60
2018-01-27T07:49:39.650Z,2.37
2018-01-27T07:52:09.242Z,3.03
2018-01-27T07:54:52.214Z,2.37
2018-01-27T07:57:21.770Z,3.23
2018-01-27T07:59:51.362Z,3.73
2018-01-27T08:02:20.910Z,3.00
2018-01-27T08:04:58.414Z,3.20
2018-01-27T08:07:27.978Z,2.60
2018-01-27T08:09:57.563Z,3.47
2018-01-27T08:12:28.681Z,3.20
2018-01-27T08:14:58.269Z,2.30
2018-01-27T08:17:34.688Z,2.13
2018-01-27T08:20:04.322Z,1.80
2018-01-27T08:22:35.526Z,1.90
2018-01-27T08:25:05.132Z,1.90
2018-01-27T08:27:38.375Z,1.80
2018-01-27T08:30:07.901Z,1.80
2018-01-27T08:32:37.481Z,1.70
2018-01-27T08:35:26.298Z,1.53
2018-01-27T08:37:57.667Z,2.40
2018-01-27T08:40:27.230Z,1.67
2018-01-27T08:42:56.757Z,2.20
2018-01-27T08:45:26.356Z,1.77
2018-01-27T08:47:55.953Z,2.00
2018-01-27T08:50:25.503Z,2.27
2018-01-27T08:52:55.072Z,2.00
2018-01-27T08:55:24.615Z,1.93
2018-01-27T08:57:54.235Z,1.73
2018-01-27T09:00:24.198Z,1.67
2018-01-27T09:02:53.765Z,1.83
2018-01-27T09:05:36.182Z,2.60
2018-01-27T09:08:05.754Z,2.70
2018-01-27T09:10:35.374Z,1.93
2018-01-27T09:13:05.402Z,2.70
2018-01-27T09:15:35.364Z,1.70
2018-01-27T09:18:09.758Z,2.20
2018-01-27T09:20:39.425Z,1.93
2018-01-27T09:23:08.950Z,3.50
2018-01-27T09:25:38.937Z,2.80
2018-01-27T09:28:20.181Z,2.47
2018-01-27T09:30:59.600Z,2.30
2018-01-27T09:33:29.203Z,1.80
2018-01-27T09:35:58.761Z,1.87
2018-01-27T09:38:28.862Z,1.70
2018-01-27T09:41:04.471Z,2.00
2018-01-27T09:43:34.617Z,2.17
2018-01-27T09:46:04.698Z,2.10
2018-01-27T09:48:36.412Z,2.93
2018-01-27T09:51:05.984Z,2.50
2018-01-27T09:53:35.823Z,1.70
2018-01-27T09:56:05.374Z,1.40
2018-01-27T09:58:34.877Z,2.00
2018-01-27T10:01:04.483Z,2.10
2018-01-27T10:03:34.037Z,1.50
2018-01-27T10:06:03.614Z,1.47
2018-01-27T10:08:33.451Z,1.70
2018-01-27T10:11:02.995Z,1.50
2018-01-27T10:13:33.382Z,1.30
2018-01-27T10:16:02.960Z,1.37
2018-01-27T10:18:32.592Z,1.00
2018-01-27T10:21:02.353Z,1.10
2018-01-27T10:23:31.886Z,1.10
2018-01-27T10:26:14.570Z,1.10
2018-01-27T10:28:44.154Z,1.10
2018-01-27T10:31:13.697Z,1.20
2018-01-27T10:33:43.341Z,1.00
2018-01-27T10:36:15.237Z,0.80
2018-01-27T10:38:45.449Z,1.10
2018-01-27T10:41:15.055Z,1.40
2018-01-27T10:43:50.655Z,0.87
2018-01-27T10:46:20.199Z,1.13
2018-01-27T10:48:49.807Z,1.67
2018-01-27T10:51:28.130Z,1.13
2018-01-27T10:53:57.643Z,0.90
2018-01-27T10:56:27.184Z,1.10
2018-01-27T10:58:57.853Z,1.07
2018-01-27T11:01:27.333Z,1.10
2018-01-27T11:03:57.778Z,1.00
2018-01-27T11:06:30.719Z,0.97
2018-01-27T11:09:00.940Z,1.03
2018-01-27T11:11:30.532Z,1.40
2018-01-27T11:14:06.144Z,1.20
2018-01-27T11:16:44.764Z,1.27
2018-01-27T11:19:14.258Z,1.80
2018-01-27T11:21:43.825Z,1.80
2018-01-27T11:24:13.445Z,1.17
2018-01-27T11:26:42.977Z,1.73
2018-01-27T11:29:12.488Z,1.43
2018-01-27T11:31:42.073Z,1.50
2018-01-27T11:34:15.053Z,1.20
2018-01-27T11:36:45.162Z,1.70
2018-01-27T11:39:14.728Z,1.60
2018-01-27T11:41:44.281Z,1.50
2018-01-27T11:44:13.794Z,3.20
2018-01-27T11:46:56.230Z,3.77
2018-01-27T11:49:25.745Z,3.20
2018-01-27T11:51:55.301Z,3.30
2018-01-27T11:54:24.826Z,3.87
2018-01-27T11:56:54.382Z,3.20
2018-01-27T11:59:23.953Z,3.37
2018-01-27T12:01:54.202Z,3.40
2018-01-27T12:04:23.787Z,3.67
2018-01-27T12:06:53.346Z,3.53
2018-01-27T12:09:22.902Z,4.07
2018-01-27T12:11:52.474Z,4.20
2018-01-27T12:14:22.041Z,3.70
2018-01-27T12:16:51.697Z,3.90
2018-01-27T12:19:30.968Z,4.17
2018-01-27T12:22:00.631Z,3.43
2018-01-27T12:24:30.640Z,3.10
2018-01-27T12:27:00.149Z,3.20
2018-01-27T12:29:37.305Z,2.80
2018-01-27T12:32:06.838Z,3.03
2018-01-27T12:34:42.893Z,3.30
2018-01-27T12:37:20.217Z,3.13
2018-01-27T12:39:49.809Z,3.77
2018-01-27T12:42:19.715Z,4.20
2018-01-27T12:44:49.274Z,5.57
2018-01-27T12:47:19.246Z,7.90
2018-01-27T12:49:49.153Z,26.93
2018-01-27T12:52:18.694Z,13.20
2018-01-27T12:54:48.343Z,10.37
2018-01-27T12:57:19.718Z,10.77
2018-01-27T12:59:49.266Z,8.10
2018-01-27T13:02:18.763Z,7.97
2018-01-27T13:04:48.551Z,7.10
2018-01-27T13:07:19.679Z,5.50
2018-01-27T13:09:49.449Z,8.20
2018-01-27T13:12:18.986Z,6.00
2018-01-27T13:14:48.505Z,5.67
2018-01-27T13:17:18.117Z,6.73
2018-01-27T13:19:47.651Z,6.40
2018-01-27T13:22:23.331Z,6.63
2018-01-27T13:24:53.024Z,6.30
2018-01-27T13:27:22.636Z,7.70
2018-01-27T13:30:00.057Z,6.50
2018-01-27T13:32:29.578Z,6.20
2018-01-27T13:34:59.144Z,6.33
2018-01-27T13:37:29.020Z,5.10
2018-01-27T13:39:58.539Z,6.37
2018-01-27T13:42:28.401Z,5.47
2018-01-27T13:44:58.170Z,5.93
2018-01-27T13:47:27.734Z,4.27
2018-01-27T13:49:58.142Z,4.47
2018-01-27T13:52:27.686Z,4.97
2018-01-27T13:54:57.651Z,4.13
2018-01-27T13:57:27.267Z,3.73
2018-01-27T13:59:56.946Z,4.30
2018-01-27T14:02:26.535Z,4.67
2018-01-27T14:04:56.127Z,4.40
2018-01-27T14:07:25.787Z,4.13
2018-01-27T14:09:55.360Z,5.43
2018-01-27T14:12:24.892Z,4.10
2018-01-27T14:14:54.462Z,4.10
2018-01-27T14:17:23.990Z,4.10
2018-01-27T14:19:53.602Z,3.80
2018-01-27T14:22:24.075Z,3.53
2018-01-27T14:24:53.623Z,3.80
2018-01-27T14:27:35.202Z,3.73
2018-01-27T14:30:04.754Z,3.17
2018-01-27T14:32:34.317Z,3.97
2018-01-27T14:35:03.882Z,4.27
2018-01-27T14:37:33.436Z,3.73
2018-01-27T14:40:16.293Z,2.47
2018-01-27T14:42:45.818Z,2.50
2018-01-27T14:45:15.397Z,2.27
2018-01-27T14:47:44.947Z,2.30
2018-01-27T14:50:14.476Z,3.37
2018-01-27T14:52:44.047Z,2.60
2018-01-27T14:55:22.264Z,2.33
2018-01-27T14:57:51.798Z,2.40
2018-01-27T15:00:21.389Z,2.00
2018-01-27T15:02:50.949Z,2.30
2018-01-27T15:05:20.667Z,2.93
2018-01-27T15:07:50.233Z,2.23
2018-01-27T15:10:19.768Z,2.23
2018-01-27T15:12:49.357Z,1.73
2018-01-27T15:15:18.922Z,1.80
2018-01-27T15:17:49.977Z,2.33
2018-01-27T15:20:19.591Z,1.80
2018-01-27T15:22:55.466Z,2.27
2018-01-27T15:25:25.062Z,2.10
2018-01-27T15:27:54.649Z,2.40
2018-01-27T15:30:24.208Z,1.77
2018-01-27T15:32:53.772Z,1.63
2018-01-27T15:35:23.317Z,1.90
2018-01-27T15:37:52.893Z,1.70
2018-01-27T15:40:22.384Z,1.60
2018-01-27T15:42:52.122Z,1.83
2018-01-27T15:45:21.973Z,1.80
2018-01-27T15:47:51.841Z,2.70
2018-01-27T15:50:21.478Z,2.30
2018-01-27T15:52:52.724Z,1.87
2018-01-27T15:55:23.475Z,1.90
2018-01-27T15:57:53.033Z,2.60
2018-01-27T16:00:22.589Z,2.60
2018-01-27T16:02:52.143Z,1.93
2018-01-27T16:05:21.715Z,2.30
2018-01-27T16:07:51.366Z,2.33
2018-01-27T16:10:20.913Z,3.60
2018-01-27T16:12:50.432Z,2.73
2018-01-27T16:15:20.231Z,3.30
2018-01-27T16:17:49.799Z,3.40
2018-01-27T16:20:19.371Z,2.73
2018-01-27T16:22:48.934Z,2.90
2018-01-27T16:25:18.494Z,2.87
2018-01-27T16:27:48.106Z,3.83
2018-01-27T16:30:17.730Z,2.60
2018-01-27T16:32:47.482Z,3.30
2018-01-27T16:35:17.272Z,2.83
2018-01-27T16:37:46.898Z,2.37
2018-01-27T16:40:16.513Z,2.20
2018-01-27T16:42:46.358Z,2.10
2018-01-27T16:45:15.911Z,2.23
2018-01-27T16:47:45.498Z,2.53
2018-01-27T16:50:15.058Z,2.10
2018-01-27T16:52:44.817Z,2.00
2018-01-27T16:55:14.455Z,2.13
2018-01-27T16:57:44.051Z,2.07
2018-01-27T17:00:20.754Z,2.53
2018-01-27T17:02:50.288Z,3.30
2018-01-27T17:05:20.585Z,2.30
2018-01-27T17:07:50.119Z,2.30
2018-01-27T17:10:23.085Z,2.97
2018-01-27T17:12:52.657Z,2.70
2018-01-27T17:15:36.115Z,2.70
2018-01-27T17:18:05.701Z,2.40
2018-01-27T17:20:35.281Z,3.80
2018-01-27T17:23:05.542Z,2.20
2018-01-27T17:25:35.842Z,2.20
2018-01-27T17:28:05.419Z,2.80
2018-01-27T17:30:35.024Z,3.17
2018-01-27T17:33:04.567Z,2.67
2018-01-27T17:35:34.149Z,3.20
2018-01-27T17:38:09.719Z,2.20
2018-01-27T17:40:39.722Z,2.40
2018-01-27T17:43:09.268Z,2.30
2018-01-27T17:45:39.628Z,2.13
2018-01-27T17:48:10.490Z,2.60
2018-01-27T17:50:40.556Z,1.83
2018-01-27T17:53:10.492Z,2.33
2018-01-27T17:55:40.077Z,2.40
2018-01-27T17:58:17.249Z,2.10
2018-01-27T18:00:46.796Z,1.80
2018-01-27T18:03:16.354Z,2.50
2018-01-27T18:05:45.915Z,1.93
2018-01-27T18:08:15.467Z,1.80
2018-01-27T18:10:51.745Z,1.87
2018-01-27T18:13:21.334Z,1.87
2018-01-27T18:15:50.861Z,1.70
2018-01-27T18:18:20.517Z,1.70
2018-01-27T18:20:50.028Z,1.60
2018-01-27T18:23:19.817Z,1.40
2018-01-27T18:25:55.397Z,1.67
2018-01-27T18:28:25.142Z,1.57
2018-01-27T18:30:57.667Z,1.27
2018-01-27T18:33:27.297Z,1.30
2018-01-27T18:36:11.282Z,1.60
2018-01-27T18:38:40.867Z,1.20
2018-01-27T18:41:11.020Z,1.87
2018-01-27T18:43:40.699Z,1.83
2018-01-27T18:46:10.579Z,1.33
2018-01-27T18:48:40.230Z,1.57
2018-01-27T18:51:17.916Z,1.30
2018-01-27T18:53:55.129Z,1.60
2018-01-27T18:56:32.469Z,1.43
2018-01-27T18:59:02.186Z,2.20
2018-01-27T19:01:31.726Z,1.97
2018-01-27T19:04:07.540Z,1.53
2018-01-27T19:06:38.677Z,1.30
2018-01-27T19:09:08.244Z,2.03
2018-01-27T19:11:37.842Z,2.07
2018-01-27T19:14:07.794Z,1.40
2018-01-27T19:16:37.570Z,1.40
2018-01-27T19:19:07.137Z,2.47
2018-01-27T19:21:37.908Z,1.80
2018-01-27T19:24:08.743Z,1.30
2018-01-27T19:26:38.290Z,2.40
2018-01-27T19:29:07.826Z,2.40
2018-01-27T19:31:46.922Z,2.10
2018-01-27T19:34:16.517Z,1.80
2018-01-27T19:36:46.864Z,1.20
2018-01-27T19:39:24.542Z,1.10
2018-01-27T19:41:54.129Z,1.43
2018-01-27T19:44:23.684Z,1.50
2018-01-27T19:46:53.206Z,1.60
2018-01-27T19:49:23.638Z,1.40
2018-01-27T19:51:53.275Z,2.23
2018-01-27T19:54:23.065Z,1.70
2018-01-27T19:56:52.711Z,1.70
2018-01-27T19:59:22.302Z,1.17
2018-01-27T20:02:06.100Z,1.97
2018-01-27T20:04:37.307Z,1.80
2018-01-27T20:07:07.318Z,2.07
2018-01-27T20:09:45.798Z,1.80
2018-01-27T20:12:16.993Z,1.77
2018-01-27T20:14:46.854Z,1.50
2018-01-27T20:17:19.474Z,2.00
2018-01-27T20:19:55.166Z,1.63
2018-01-27T20:22:24.774Z,1.83
2018-01-27T20:24:54.534Z,1.63
2018-01-27T20:27:24.543Z,1.60
2018-01-27T20:29:54.140Z,2.07
2018-01-27T20:32:23.739Z,2.00
2018-01-27T20:35:01.418Z,1.40
2018-01-27T20:37:31.221Z,2.77
2018-01-27T20:40:00.788Z,1.40
2018-01-27T20:42:30.524Z,1.73
2018-01-27T20:45:03.458Z,2.13
2018-01-27T20:47:33.087Z,1.90
2018-01-27T20:50:02.669Z,1.80
2018-01-27T20:52:32.407Z,1.50
2018-01-27T20:55:01.971Z,2.00
2018-01-27T20:57:41.633Z,1.80
2018-01-27T21:00:11.368Z,2.07
2018-01-27T21:02:40.934Z,1.60
2018-01-27T21:05:10.528Z,2.30
2018-01-27T21:07:40.132Z,1.90
2018-01-27T21:10:09.734Z,2.03
2018-01-27T21:12:39.296Z,1.87
2018-01-27T21:15:08.890Z,1.83
2018-01-27T21:17:39.196Z,2.60
2018-01-27T21:20:08.722Z,2.20
2018-01-27T21:22:38.464Z,2.03
2018-01-27T21:25:08.561Z,1.97
2018-01-27T21:27:38.130Z,2.17
2018-01-27T21:30:07.669Z,2.57
2018-01-27T21:32:40.213Z,3.00
2018-01-27T21:35:10.800Z,2.80
2018-01-27T21:37:54.657Z,2.30
2018-01-27T21:40:24.293Z,2.40
2018-01-27T21:42:54.101Z,2.43
2018-01-27T21:45:23.632Z,2.20
2018-01-27T21:47:53.189Z,2.60
2018-01-27T21:50:35.276Z,2.33
2018-01-27T21:53:04.848Z,2.00
2018-01-27T21:55:34.434Z,2.33
2018-01-27T21:58:04.018Z,2.00
2018-01-27T22:00:41.506Z,2.30
2018-01-27T22:03:11.167Z,2.27
2018-01-27T22:05:40.746Z,2.00
2018-01-27T22:08:13.107Z,2.43
2018-01-27T22:10:42.678Z,1.70
2018-01-27T22:13:12.582Z,2.60
2018-01-27T22:15:42.360Z,2.00
2018-01-27T22:18:14.526Z,1.90
2018-01-27T22:20:44.117Z,2.20
2018-01-27T22:23:13.702Z,1.90
2018-01-27T22:25:43.569Z,2.40
2018-01-27T22:28:19.190Z,2.20
2018-01-27T22:30:51.289Z,1.87
2018-01-27T22:33:20.882Z,1.90
2018-01-27T22:35:50.400Z,2.07
2018-01-27T22:38:26.282Z,1.90
2018-01-27T22:40:55.889Z,1.50
2018-01-27T22:43:33.730Z,1.63
2018-01-27T22:46:03.454Z,1.73
2018-01-27T22:48:39.217Z,2.07
2018-01-27T22:51:09.049Z,2.50
2018-01-27T22:53:39.232Z,2.00
2018-01-27T22:56:08.862Z,1.73
2018-01-27T22:58:38.409Z,2.27
2018-01-27T23:01:16.266Z,2.10
2018-01-27T23:03:47.015Z,1.80
2018-01-27T23:06:16.568Z,1.87
2018-01-27T23:08:46.160Z,2.00
2018-01-27T23:11:15.674Z,1.90
2018-01-27T23:13:45.359Z,2.10
2018-01-27T23:16:14.899Z,1.70
2018-01-27T23:18:44.445Z,2.37
2018-01-27T23:21:14.591Z,2.17
2018-01-27T23:23:44.141Z,2.30
2018-01-27T23:26:26.981Z,2.80
2018-01-27T23:28:56.534Z,2.00
2018-01-27T23:31:26.118Z,3.27
2018-01-27T23:33:55.685Z,2.70
2018-01-27T23:36:25.310Z,2.43
2018-01-27T23:38:56.322Z,2.20
2018-01-27T23:41:25.910Z,2.10
2018-01-27T23:44:14.279Z,2.07
2018-01-27T23:46:43.920Z,2.63
2018-01-27T23:49:16.682Z,2.30
2018-01-27T23:51:46.197Z,1.80
2018-01-27T23:54:15.766Z,2.10
2018-01-27T23:56:45.273Z,2.30
2018-01-27T23:59:14.826Z,2.30
